createdAt,value
2023-03-21T00:00:48.111Z,100311.19
2023-03-21T00:03:51.711Z,100284.63
2023-03-21T00:06:54.190Z,100299.94
2023-03-21T00:10:01.898Z,100305.91
2023-03-21T00:13:08.036Z,100294.41
2023-03-21T00:16:20.266Z,100276.34
2023-03-21T00:19:33.156Z,100297.16
2023-03-21T00:22:36.596Z,100276.12
2023-03-21T00:25:39.404Z,100293.47
2023-03-21T00:28:43.340Z,100290.84
2023-03-21T00:31:45.899Z,100284.50
2023-03-21T00:35:01.396Z,100283.34
2023-03-21T00:38:04.757Z,100258.06
2023-03-21T00:41:20.911Z,100270.56
2023-03-21T00:44:26.887Z,100268.63
2023-03-21T00:47:30.486Z,100249.22
2023-03-21T00:50:34.427Z,100259.66
2023-03-21T00:53:36.980Z,100264.84
2023-03-21T00:56:39.480Z,100240.59
2023-03-21T00:59:42.144Z,100261.37
2023-03-21T01:03:02.873Z,100234.59
2023-03-21T01:06:07.788Z,100240.81
2023-03-21T01:09:22.284Z,100264.03
2023-03-21T01:12:27.627Z,100261.50
2023-03-21T01:15:31.406Z,100252.53
2023-03-21T01:18:35.524Z,100240.56
2023-03-21T01:21:37.828Z,100243.81
2023-03-21T01:24:52.078Z,100255.06
2023-03-21T01:27:55.477Z,100261.03
2023-03-21T01:31:02.012Z,100259.22
2023-03-21T01:34:04.840Z,100263.13
2023-03-21T01:37:07.522Z,100259.09
2023-03-21T01:40:16.364Z,100231.72
2023-03-21T01:43:31.361Z,100258.53
2023-03-21T01:46:51.529Z,100262.88
2023-03-21T01:50:03.322Z,100258.06
2023-03-21T01:53:06.949Z,100232.28
2023-03-21T01:56:18.308Z,100242.19
2023-03-21T01:59:23.786Z,100264.25
2023-03-21T02:02:31.458Z,100255.88
2023-03-21T02:06:00.861Z,100246.78
2023-03-21T02:09:09.298Z,100262.53
2023-03-21T02:12:12.359Z,100234.34
2023-03-21T02:15:16.073Z,100259.66
2023-03-21T02:18:42.053Z,100239.84
2023-03-21T02:22:21.761Z,100257.69
2023-03-21T02:25:49.401Z,100232.97
2023-03-21T02:28:59.757Z,100261.03
2023-03-21T02:32:17.907Z,100255.53
2023-03-21T02:35:56.849Z,100259.41
2023-03-21T02:39:13.560Z,100256.66
2023-03-21T02:42:43.365Z,100262.41
2023-03-21T02:45:53.832Z,100240.56
2023-03-21T02:49:07.002Z,100242.62
2023-03-21T02:52:25.556Z,100235.72
2023-03-21T02:55:33.261Z,100226.97
2023-03-21T02:58:37.644Z,100265.66
2023-03-21T03:01:40.595Z,100259.88
2023-03-21T03:04:43.490Z,100271.63
2023-03-21T03:07:46.005Z,100248.72
2023-03-21T03:11:07.212Z,100271.16
2023-03-21T03:14:42.037Z,100272.31
2023-03-21T03:17:55.544Z,100265.16
2023-03-21T03:21:19.178Z,100264.47
2023-03-21T03:24:34.063Z,100265.38
2023-03-21T03:27:40.694Z,100239.63
2023-03-21T03:30:54.253Z,100257.34
2023-03-21T03:34:07.141Z,100262.41
2023-03-21T03:37:16.772Z,100268.38
2023-03-21T03:40:28.317Z,100273.66
2023-03-21T03:43:43.544Z,100275.25
2023-03-21T03:46:58.355Z,100265.72
2023-03-21T03:50:06.364Z,100268.81
2023-03-21T03:53:30.674Z,100263.63
2023-03-21T03:56:33.811Z,100251.78
2023-03-21T03:59:38.687Z,100267.44
2023-03-21T04:02:42.004Z,100270.87
2023-03-21T04:05:46.421Z,100248.44
2023-03-21T04:08:49.153Z,100249.94
2023-03-21T04:11:52.071Z,100273.16
2023-03-21T04:14:57.091Z,100252.91
2023-03-21T04:18:04.944Z,100243.94
2023-03-21T04:21:12.873Z,100255.66
2023-03-21T04:24:16.136Z,100282.09
2023-03-21T04:27:19.165Z,100252.75
2023-03-21T04:30:24.934Z,100269.47
2023-03-21T04:33:27.521Z,100279.22
2023-03-21T04:36:39.421Z,100271.31
2023-03-21T04:39:42.876Z,100251.00
2023-03-21T04:42:47.620Z,100246.19
2023-03-21T04:45:51.024Z,100265.06
2023-03-21T04:48:53.787Z,100271.97
2023-03-21T04:51:56.244Z,100267.59
2023-03-21T04:54:58.856Z,100240.19
2023-03-21T04:58:01.370Z,100243.59
2023-03-21T05:01:05.980Z,100272.50
2023-03-21T05:04:08.473Z,100245.91
2023-03-21T05:07:11.469Z,100273.25
2023-03-21T05:10:14.021Z,100273.72
2023-03-21T05:13:16.793Z,100255.19
2023-03-21T05:16:19.319Z,100287.97
2023-03-21T05:19:25.865Z,100272.53
2023-03-21T05:22:29.118Z,100260.56
2023-03-21T05:25:34.725Z,100274.41
2023-03-21T05:28:39.958Z,100257.13
2023-03-21T05:31:44.926Z,100260.03
2023-03-21T05:34:47.417Z,100267.72
2023-03-21T05:37:50.139Z,100267.56
2023-03-21T05:40:54.339Z,100292.19
2023-03-21T05:43:56.989Z,100275.75
2023-03-21T05:46:59.641Z,100290.97
2023-03-21T05:50:03.143Z,100269.00
2023-03-21T05:53:06.101Z,100278.78
2023-03-21T05:56:09.326Z,100273.53
2023-03-21T05:59:12.586Z,100300.78
2023-03-21T06:02:16.117Z,100297.59
2023-03-21T06:05:19.026Z,100314.38
2023-03-21T06:08:21.525Z,100301.69
2023-03-21T06:11:32.853Z,100272.94
2023-03-21T06:14:37.675Z,100285.72
2023-03-21T06:17:41.093Z,100314.84
2023-03-21T06:20:44.829Z,100302.44
2023-03-21T06:23:47.911Z,100291.16
2023-03-21T06:26:50.233Z,100294.16
2023-03-21T06:29:53.380Z,100294.41
2023-03-21T06:32:56.252Z,100317.66
2023-03-21T06:35:59.460Z,100283.94
2023-03-21T06:39:02.421Z,100310.03
2023-03-21T06:42:05.334Z,100296.25
2023-03-21T06:45:08.907Z,100288.88
2023-03-21T06:48:12.052Z,100308.09
2023-03-21T06:51:16.515Z,100310.84
2023-03-21T06:54:23.088Z,100318.28
2023-03-21T06:57:25.847Z,100290.44
2023-03-21T07:00:28.793Z,100321.00
2023-03-21T07:03:31.743Z,100319.63
2023-03-21T07:06:36.214Z,100295.53
2023-03-21T07:09:39.947Z,100311.78
2023-03-21T07:12:42.690Z,100298.91
2023-03-21T07:15:46.303Z,100324.03
2023-03-21T07:18:49.004Z,100329.22
2023-03-21T07:21:51.306Z,100326.75
2023-03-21T07:25:04.375Z,100308.41
2023-03-21T07:28:09.275Z,100310.91
2023-03-21T07:31:17.351Z,100312.69
2023-03-21T07:34:19.752Z,100317.44
2023-03-21T07:37:23.866Z,100332.63
2023-03-21T07:40:31.158Z,100330.09
2023-03-21T07:43:34.787Z,100325.16
2023-03-21T07:46:38.186Z,100311.56
2023-03-21T07:49:40.890Z,100326.69
2023-03-21T07:52:43.286Z,100313.03
2023-03-21T07:55:50.350Z,100300.91
2023-03-21T07:58:52.616Z,100324.81
2023-03-21T08:01:55.289Z,100302.31
2023-03-21T08:04:57.916Z,100312.56
2023-03-21T08:08:00.329Z,100329.28
2023-03-21T08:11:04.505Z,100328.78
2023-03-21T08:14:06.952Z,100330.00
2023-03-21T08:17:10.399Z,100309.13
2023-03-21T08:20:16.311Z,100317.28
2023-03-21T08:23:19.060Z,100322.78
2023-03-21T08:26:25.103Z,100330.28
2023-03-21T08:29:27.986Z,100337.06
2023-03-21T08:32:31.143Z,100327.84
2023-03-21T08:35:37.818Z,100332.25
2023-03-21T08:38:41.986Z,100328.00
2023-03-21T08:41:44.613Z,100316.16
2023-03-21T08:44:47.343Z,100315.97
2023-03-21T08:47:50.425Z,100315.47
2023-03-21T08:50:52.760Z,100333.84
2023-03-21T08:53:55.360Z,100338.00
2023-03-21T08:57:00.527Z,100337.38
2023-03-21T09:00:17.131Z,100333.94
2023-03-21T09:03:20.229Z,100337.34
2023-03-21T09:06:24.738Z,100332.56
2023-03-21T09:09:28.569Z,100339.28
2023-03-21T09:12:31.432Z,100313.53
2023-03-21T09:15:35.481Z,100306.75
2023-03-21T09:18:49.454Z,100323.75
2023-03-21T09:21:53.901Z,100323.69
2023-03-21T09:24:57.549Z,100336.34
2023-03-21T09:28:00.355Z,100330.09
2023-03-21T09:31:04.023Z,100331.31
2023-03-21T09:34:06.474Z,100322.69
2023-03-21T09:37:13.834Z,100329.59
2023-03-21T09:40:22.430Z,100306.19
2023-03-21T09:43:57.128Z,100302.81
2023-03-21T09:47:21.759Z,100325.34
2023-03-21T09:50:32.065Z,100320.22
2023-03-21T09:53:39.849Z,100330.69
2023-03-21T09:56:44.983Z,100307.09
2023-03-21T09:59:50.687Z,100306.03
2023-03-21T10:02:59.791Z,100321.84
2023-03-21T10:06:15.310Z,100316.59
2023-03-21T10:09:22.986Z,100299.25
2023-03-21T10:12:30.615Z,100306.47
2023-03-21T10:15:33.248Z,100311.59
2023-03-21T10:18:37.658Z,100308.00
2023-03-21T10:22:03.377Z,100305.00
2023-03-21T10:25:08.654Z,100317.16
2023-03-21T10:28:18.721Z,100308.72
2023-03-21T10:31:27.075Z,100293.47
2023-03-21T10:38:06.544Z,100304.50
2023-03-21T10:41:11.418Z,100307.34
2023-03-21T10:44:17.832Z,100297.28
2023-03-21T10:47:26.699Z,100304.72
2023-03-21T10:50:30.263Z,100308.25
2023-03-21T10:53:38.562Z,100277.72
2023-03-21T10:56:49.911Z,100296.91
2023-03-21T11:00:02.463Z,100289.59
2023-03-21T11:03:05.676Z,100300.41
2023-03-21T11:06:26.580Z,100279.81
2023-03-21T11:09:44.310Z,100250.19
2023-03-21T11:12:48.577Z,100281.06
2023-03-21T11:15:58.583Z,100283.53
2023-03-21T11:19:04.056Z,100258.78
2023-03-21T11:22:08.196Z,100266.41
2023-03-21T11:25:39.635Z,100256.44
2023-03-21T11:28:44.913Z,100264.09
2023-03-21T11:31:47.327Z,100254.06
2023-03-21T11:35:16.882Z,100243.81
2023-03-21T11:38:31.796Z,100243.91
2023-03-21T11:41:35.518Z,100235.41
2023-03-21T11:44:44.232Z,100224.88
2023-03-21T11:47:49.465Z,100221.00
2023-03-21T11:51:01.180Z,100230.31
2023-03-21T11:54:36.400Z,100220.19
2023-03-21T11:58:14.638Z,100226.16
2023-03-21T12:01:39.061Z,100221.06
2023-03-21T12:04:42.863Z,100225.28
2023-03-21T12:07:45.545Z,100210.41
2023-03-21T12:10:59.340Z,100206.44
2023-03-21T12:14:24.914Z,100214.50
2023-03-21T12:18:06.919Z,100204.78
2023-03-21T12:21:15.763Z,100196.34
2023-03-21T12:24:26.314Z,100191.41
2023-03-21T12:28:09.974Z,100203.75
2023-03-21T12:31:15.677Z,100207.75
2023-03-21T12:34:46.445Z,100205.56
2023-03-21T12:38:18.116Z,100185.72
2023-03-21T12:41:41.282Z,100193.00
2023-03-21T12:44:51.261Z,100189.06
2023-03-21T12:48:00.370Z,100163.56
2023-03-21T12:51:08.400Z,100186.72
2023-03-21T12:54:21.925Z,100152.75
2023-03-21T12:57:47.780Z,100152.37
2023-03-21T13:01:01.600Z,100162.66
2023-03-21T13:04:46.038Z,100150.91
2023-03-21T13:08:10.033Z,100157.75
2023-03-21T13:11:23.694Z,100159.41
2023-03-21T13:14:34.049Z,100151.09
2023-03-21T13:17:48.008Z,100131.63
2023-03-21T13:20:55.047Z,100144.38
2023-03-21T13:24:05.278Z,100136.41
2023-03-21T13:27:26.138Z,100139.59
2023-03-21T13:30:30.414Z,100120.41
2023-03-21T13:33:34.653Z,100117.94
2023-03-21T13:36:42.191Z,100115.50
2023-03-21T13:39:49.004Z,100113.94
2023-03-21T13:43:00.538Z,100132.37
2023-03-21T13:46:25.703Z,100115.53
2023-03-21T13:49:34.952Z,100136.28
2023-03-21T13:52:37.280Z,100131.44
2023-03-21T13:55:42.781Z,100129.47
2023-03-21T13:58:45.709Z,100108.72
2023-03-21T14:02:16.055Z,100129.59
2023-03-21T14:05:22.870Z,100127.63
2023-03-21T14:08:36.739Z,100121.22
2023-03-21T14:11:44.576Z,100085.69
2023-03-21T14:15:06.732Z,100108.44
2023-03-21T14:18:28.152Z,100095.63
2023-03-21T14:21:50.288Z,100106.81
2023-03-21T14:25:00.860Z,100103.22
2023-03-21T14:28:06.448Z,100095.25
2023-03-21T14:31:16.127Z,100065.38
2023-03-21T14:34:19.846Z,100049.38
2023-03-21T14:37:28.557Z,100085.69
2023-03-21T14:40:30.898Z,100055.81
2023-03-21T14:43:34.375Z,100086.94
2023-03-21T14:46:36.825Z,100087.31
2023-03-21T14:49:39.480Z,100067.78
2023-03-21T14:52:43.037Z,100076.16
2023-03-21T14:55:50.834Z,100051.41
2023-03-21T14:58:54.171Z,100075.75
2023-03-21T15:01:57.299Z,100064.91
2023-03-21T15:05:09.870Z,100075.25
2023-03-21T15:08:12.502Z,100079.59
2023-03-21T15:11:15.540Z,100069.19
2023-03-21T15:14:23.433Z,100045.62
2023-03-21T15:17:26.826Z,100060.78
2023-03-21T15:20:31.964Z,100041.13
2023-03-21T15:23:43.203Z,100065.75
2023-03-21T15:26:48.086Z,100041.34
2023-03-21T15:29:54.179Z,100045.62
2023-03-21T15:32:59.250Z,100057.59
2023-03-21T15:36:08.532Z,100061.44
2023-03-21T15:39:15.816Z,100066.84
2023-03-21T15:42:37.483Z,100047.53
2023-03-21T15:45:50.514Z,100069.78
2023-03-21T15:49:08.264Z,100046.53
2023-03-21T15:52:15.822Z,100050.37
2023-03-21T15:55:52.262Z,100040.75
2023-03-21T15:58:54.919Z,100067.81
2023-03-21T16:01:57.527Z,100039.78
2023-03-21T16:05:03.241Z,100039.63
2023-03-21T16:08:22.392Z,100062.78
2023-03-21T16:11:26.394Z,100068.22
2023-03-21T16:14:29.245Z,100067.34
2023-03-21T16:17:37.628Z,100041.25
2023-03-21T16:20:43.341Z,100066.34
2023-03-21T16:23:47.229Z,100073.44
2023-03-21T16:26:52.183Z,100074.09
2023-03-21T16:29:54.824Z,100077.22
2023-03-21T16:32:57.447Z,100082.72
2023-03-21T16:36:00.972Z,100049.84
2023-03-21T16:39:15.935Z,100079.38
2023-03-21T16:42:18.582Z,100072.88
2023-03-21T16:45:21.455Z,100076.38
2023-03-21T16:48:24.144Z,100084.56
2023-03-21T16:51:33.357Z,100064.44
2023-03-21T16:54:36.222Z,100101.00
2023-03-21T16:57:39.335Z,100096.88
2023-03-21T17:00:42.156Z,100072.06
2023-03-21T17:03:45.429Z,100103.84
2023-03-21T17:06:53.938Z,100109.34
2023-03-21T17:09:56.340Z,100110.81
2023-03-21T17:12:59.076Z,100084.28
2023-03-21T17:16:01.415Z,100082.62
2023-03-21T17:19:11.444Z,100107.34
2023-03-21T17:22:14.740Z,100106.75
2023-03-21T17:25:18.519Z,100111.06
2023-03-21T17:28:21.006Z,100115.37
2023-03-21T17:31:25.813Z,100089.59
2023-03-21T17:34:28.198Z,100093.84
2023-03-21T17:37:30.886Z,100111.47
2023-03-21T17:40:34.491Z,100088.16
2023-03-21T17:43:37.031Z,100113.66
2023-03-21T17:46:39.535Z,100125.47
2023-03-21T17:49:42.345Z,100096.16
2023-03-21T17:52:45.068Z,100111.03
2023-03-21T17:55:47.665Z,100122.94
2023-03-21T17:58:50.065Z,100124.03
2023-03-21T18:01:52.713Z,100103.91
2023-03-21T18:04:56.215Z,100127.66
2023-03-21T18:08:13.878Z,100135.22
2023-03-21T18:11:18.624Z,100109.84
2023-03-21T18:14:27.902Z,100111.66
2023-03-21T18:17:31.285Z,100142.78
2023-03-21T18:23:56.490Z,100147.44
2023-03-21T18:26:58.863Z,100144.22
2023-03-21T18:30:28.647Z,100140.12
2023-03-21T18:33:24.391Z,100151.72
2023-03-21T18:36:28.935Z,100149.72
2023-03-21T18:39:33.209Z,100156.75
2023-03-21T18:42:36.893Z,100149.19
2023-03-21T18:45:39.417Z,100126.59
2023-03-21T18:48:42.797Z,100146.94
2023-03-21T18:51:47.115Z,100134.38
2023-03-21T18:54:49.912Z,100137.12
2023-03-21T18:57:53.978Z,100133.94
2023-03-21T19:00:58.028Z,100130.69
2023-03-21T19:04:21.403Z,100134.66
2023-03-21T19:07:25.982Z,100136.97
2023-03-21T19:10:28.456Z,100136.22
2023-03-21T19:13:31.659Z,100164.81
2023-03-21T19:16:48.697Z,100163.66
2023-03-21T19:19:56.728Z,100143.94
2023-03-21T19:22:59.173Z,100171.06
2023-03-21T19:26:01.857Z,100170.62
2023-03-21T19:29:07.572Z,100147.69
2023-03-21T19:32:10.635Z,100169.72
2023-03-21T19:35:14.315Z,100154.75
2023-03-21T19:38:17.098Z,100156.28
2023-03-21T19:41:20.453Z,100167.50
2023-03-21T19:44:23.140Z,100178.56
2023-03-21T19:47:25.615Z,100157.69
2023-03-21T19:53:53.402Z,100168.03
2023-03-21T19:56:56.200Z,100182.47
2023-03-21T19:59:58.696Z,100170.16
2023-03-21T20:03:01.683Z,100189.00
2023-03-21T20:06:08.224Z,100193.37
2023-03-21T20:09:49.767Z,100178.03
2023-03-21T20:12:33.503Z,100194.78
2023-03-21T20:15:45.871Z,100201.03
2023-03-21T20:18:52.451Z,100181.78
2023-03-21T20:21:59.384Z,100189.09
2023-03-21T20:25:08.479Z,100184.00
2023-03-21T20:28:17.153Z,100192.03
2023-03-21T20:31:27.162Z,100208.25
2023-03-21T20:34:30.616Z,100211.81
2023-03-21T20:37:34.710Z,100202.38
2023-03-21T20:40:38.173Z,100201.56
2023-03-21T20:47:05.450Z,100183.59
2023-03-21T20:50:11.755Z,100200.47
2023-03-21T20:53:14.132Z,100193.84
2023-03-21T20:56:16.737Z,100210.63
2023-03-21T20:59:26.538Z,100212.59
2023-03-21T21:02:30.110Z,100183.66
2023-03-21T21:05:34.894Z,100193.34
2023-03-21T21:08:38.685Z,100186.13
2023-03-21T21:15:03.890Z,100200.63
2023-03-21T21:18:07.648Z,100224.66
2023-03-21T21:21:11.140Z,100203.41
2023-03-21T21:24:14.830Z,100202.50
2023-03-21T21:27:17.549Z,100227.22
2023-03-21T21:30:20.233Z,100222.19
2023-03-21T21:33:22.879Z,100194.94
2023-03-21T21:36:25.954Z,100218.16
2023-03-21T21:39:31.505Z,100222.19
2023-03-21T21:42:38.320Z,100218.53
2023-03-21T21:45:42.120Z,100226.72
2023-03-21T21:48:45.248Z,100209.25
2023-03-21T21:51:48.095Z,100207.16
2023-03-21T21:54:50.993Z,100228.56
2023-03-21T21:57:58.043Z,100213.63
2023-03-21T22:01:01.806Z,100217.91
2023-03-21T22:04:08.434Z,100219.41
2023-03-21T22:07:14.248Z,100211.94
2023-03-21T22:10:17.082Z,100247.66
2023-03-21T22:13:19.446Z,100251.84
2023-03-21T22:16:22.383Z,100250.22
2023-03-21T22:19:24.834Z,100226.53
2023-03-21T22:22:27.537Z,100259.44
2023-03-21T22:25:33.109Z,100258.63
2023-03-21T22:28:39.190Z,100264.03
2023-03-21T22:31:42.530Z,100280.72
2023-03-21T22:34:45.619Z,100254.59
2023-03-21T22:37:48.469Z,100264.03
2023-03-21T22:40:59.573Z,100283.12
2023-03-21T22:44:02.311Z,100277.84
2023-03-21T22:47:08.142Z,100220.56
2023-03-21T22:50:11.140Z,100283.34
2023-03-21T22:53:14.028Z,100263.56
2023-03-21T22:56:16.385Z,100261.97
2023-03-21T22:59:19.078Z,100256.47
2023-03-21T23:02:21.525Z,100273.00
2023-03-21T23:05:24.102Z,100275.44
2023-03-21T23:08:27.163Z,100257.37
2023-03-21T23:11:29.786Z,100252.53
2023-03-21T23:14:32.239Z,100246.34
2023-03-21T23:17:35.551Z,100241.97
2023-03-21T23:20:38.365Z,100234.16
2023-03-21T23:23:41.817Z,100277.50
2023-03-21T23:26:44.229Z,100241.84
2023-03-21T23:29:47.092Z,100264.37
2023-03-21T23:32:49.411Z,100278.53
2023-03-21T23:35:52.043Z,100273.72
2023-03-21T23:38:54.419Z,100260.81
2023-03-21T23:41:58.668Z,100244.25
2023-03-21T23:45:01.273Z,100235.75
2023-03-21T23:48:04.055Z,100272.09
2023-03-21T23:51:06.715Z,100270.72
2023-03-21T23:54:09.900Z,100259.06
2023-03-21T23:57:12.689Z,100257.47
